createdAt,value
2023-02-15T00:01:36.872Z,-1.00
2023-02-15T00:04:05.098Z,-1.00
2023-02-15T00:06:32.276Z,-1.10
2023-02-15T00:08:59.439Z,-1.20
2023-02-15T00:11:41.916Z,-1.20
2023-02-15T00:14:10.132Z,-1.20
2023-02-15T00:16:38.552Z,-1.40
2023-02-15T00:19:05.771Z,-1.40
2023-02-15T00:21:33.978Z,-1.40
2023-02-15T00:24:02.352Z,-1.30
2023-02-15T00:26:29.471Z,-1.30
2023-02-15T00:28:57.197Z,-1.40
2023-02-15T00:31:23.987Z,-1.50
2023-02-15T00:33:50.824Z,-1.40
2023-02-15T00:36:17.836Z,-1.40
2023-02-15T00:38:47.014Z,-1.40
2023-02-15T00:41:13.691Z,-1.40
2023-02-15T00:43:40.495Z,-1.50
2023-02-15T00:46:07.721Z,-1.60
2023-02-15T00:48:34.457Z,-1.50
2023-02-15T00:51:02.564Z,-1.60
2023-02-15T00:53:29.870Z,-1.70
2023-02-15T00:55:57.585Z,-1.60
2023-02-15T00:58:25.108Z,-1.50
2023-02-15T01:00:52.300Z,-1.60
2023-02-15T01:03:20.614Z,-1.70
2023-02-15T01:05:49.027Z,-1.70
2023-02-15T01:08:16.673Z,-1.60
2023-02-15T01:10:44.978Z,-1.50
2023-02-15T01:13:11.733Z,-1.40
2023-02-15T01:15:43.724Z,-1.30
2023-02-15T01:18:12.147Z,-1.40
2023-02-15T01:20:42.055Z,-1.30
2023-02-15T01:23:09.967Z,-1.50
2023-02-15T01:25:37.156Z,-1.60
2023-02-15T01:28:04.472Z,-1.70
2023-02-15T01:30:31.616Z,-1.90
2023-02-15T01:32:59.198Z,-1.90
2023-02-15T01:35:29.296Z,-1.90
2023-02-15T01:37:57.755Z,-1.80
2023-02-15T01:40:25.323Z,-1.80
2023-02-15T01:42:54.306Z,-1.90
2023-02-15T01:45:32.949Z,-2.00
2023-02-15T01:48:21.907Z,-2.00
2023-02-15T01:50:55.667Z,-2.00
2023-02-15T01:53:27.847Z,-2.10
2023-02-15T01:55:59.853Z,-2.00
2023-02-15T01:58:30.101Z,-2.00
2023-02-15T02:01:00.967Z,-1.90
2023-02-15T02:03:57.906Z,-1.90
2023-02-15T02:06:26.428Z,-1.90
2023-02-15T02:08:54.898Z,-1.90
2023-02-15T02:11:21.904Z,-1.80
2023-02-15T02:13:49.241Z,-1.90
2023-02-15T02:16:31.159Z,-2.10
2023-02-15T02:19:12.098Z,-2.00
2023-02-15T02:22:22.232Z,-2.10
2023-02-15T02:25:05.577Z,-2.10
2023-02-15T02:27:40.283Z,-2.10
2023-02-15T02:30:25.877Z,-2.10
2023-02-15T02:33:29.278Z,-1.90
2023-02-15T02:36:00.513Z,-2.00
2023-02-15T02:38:55.795Z,-2.00
2023-02-15T02:41:42.799Z,-1.90
2023-02-15T02:44:20.677Z,-1.90
2023-02-15T02:47:16.522Z,-1.90
2023-02-15T02:49:44.550Z,-2.00
2023-02-15T02:52:35.866Z,-2.00
2023-02-15T02:55:06.809Z,-2.00
2023-02-15T02:57:34.991Z,-2.00
2023-02-15T03:00:04.793Z,-2.10
2023-02-15T03:02:38.866Z,-2.00
2023-02-15T03:05:13.052Z,-2.00
2023-02-15T03:07:41.397Z,-1.90
2023-02-15T03:10:09.316Z,-1.80
2023-02-15T03:12:41.070Z,-1.90
2023-02-15T03:15:55.595Z,-2.00
2023-02-15T03:18:37.461Z,-2.00
2023-02-15T03:21:07.399Z,-2.10
2023-02-15T03:23:35.536Z,-2.10
2023-02-15T03:26:06.740Z,-2.00
2023-02-15T03:28:39.762Z,-2.00
2023-02-15T03:31:09.396Z,-2.00
2023-02-15T03:33:40.870Z,-1.90
2023-02-15T03:36:19.930Z,-1.90
2023-02-15T03:39:00.795Z,-1.90
2023-02-15T03:41:35.148Z,-1.90
2023-02-15T03:44:20.033Z,-2.00
2023-02-15T03:46:53.642Z,-2.00
2023-02-15T03:49:44.326Z,-2.00
2023-02-15T03:52:13.983Z,-2.10
2023-02-15T03:54:44.646Z,-2.10
2023-02-15T03:57:33.613Z,-2.00
2023-02-15T04:00:19.984Z,-1.90
2023-02-15T04:02:49.669Z,-1.80
2023-02-15T04:05:16.407Z,-1.70
2023-02-15T04:07:43.133Z,-1.70
2023-02-15T04:10:28.909Z,-1.60
2023-02-15T04:12:55.567Z,-1.60
2023-02-15T04:15:40.799Z,-1.50
2023-02-15T04:18:07.523Z,-1.60
2023-02-15T04:20:52.573Z,-1.80
2023-02-15T04:23:37.976Z,-1.80
2023-02-15T04:26:05.779Z,-1.80
2023-02-15T04:28:32.508Z,-1.70
2023-02-15T04:30:59.322Z,-1.70
2023-02-15T04:33:26.059Z,-1.60
2023-02-15T04:35:52.698Z,-1.80
2023-02-15T04:38:19.435Z,-2.00
2023-02-15T04:40:51.688Z,-2.10
2023-02-15T04:43:18.881Z,-2.00
2023-02-15T04:45:51.170Z,-2.10
2023-02-15T04:48:18.918Z,-2.10
2023-02-15T04:50:46.116Z,-2.10
2023-02-15T04:53:13.306Z,-2.10
2023-02-15T04:55:40.101Z,-2.30
2023-02-15T04:58:06.768Z,-2.40
2023-02-15T05:00:33.430Z,-2.40
2023-02-15T05:03:00.303Z,-2.40
2023-02-15T05:05:26.956Z,-2.50
2023-02-15T05:07:53.737Z,-2.40
2023-02-15T05:10:20.605Z,-2.30
2023-02-15T05:12:47.381Z,-2.20
2023-02-15T05:15:14.113Z,-2.10
2023-02-15T05:17:40.816Z,-2.00
2023-02-15T05:20:08.003Z,-2.10
2023-02-15T05:22:34.766Z,-2.20
2023-02-15T05:25:20.243Z,-2.30
2023-02-15T05:28:05.580Z,-2.30
2023-02-15T05:30:32.570Z,-2.40
2023-02-15T05:32:59.355Z,-2.50
2023-02-15T05:35:26.035Z,-2.60
2023-02-15T05:37:52.706Z,-2.60
2023-02-15T05:40:19.467Z,-2.50
2023-02-15T05:42:46.182Z,-2.40
2023-02-15T05:45:12.904Z,-2.30
2023-02-15T05:47:39.534Z,-2.20
2023-02-15T05:50:07.250Z,-2.20
2023-02-15T05:52:34.414Z,-2.10
2023-02-15T05:55:01.466Z,-2.20
2023-02-15T05:57:28.270Z,-2.30
2023-02-15T05:59:55.037Z,-2.30
2023-02-15T06:02:21.829Z,-2.30
2023-02-15T06:04:48.606Z,-2.20
2023-02-15T06:07:15.318Z,-2.10
2023-02-15T06:09:41.964Z,-2.10
2023-02-15T06:12:08.797Z,-1.90
2023-02-15T06:14:35.448Z,-1.90
2023-02-15T06:17:02.126Z,-1.90
2023-02-15T06:19:28.780Z,-2.00
2023-02-15T06:21:55.475Z,-2.00
2023-02-15T06:24:22.119Z,-2.10
2023-02-15T06:26:48.775Z,-2.20
2023-02-15T06:29:15.673Z,-2.30
2023-02-15T06:31:42.578Z,-2.50
2023-02-15T06:34:09.450Z,-2.60
2023-02-15T06:36:36.173Z,-2.50
2023-02-15T06:39:04.066Z,-2.50
2023-02-15T06:41:31.264Z,-2.50
2023-02-15T06:43:58.017Z,-2.40
2023-02-15T06:46:24.830Z,-2.40
2023-02-15T06:48:51.565Z,-2.50
2023-02-15T06:51:18.220Z,-2.50
2023-02-15T06:53:44.961Z,-2.50
2023-02-15T06:56:12.134Z,-2.50
2023-02-15T06:58:40.241Z,-2.50
2023-02-15T07:01:07.694Z,-2.40
2023-02-15T07:03:35.216Z,-2.40
2023-02-15T07:06:06.662Z,-2.30
2023-02-15T07:08:33.316Z,-2.30
2023-02-15T07:11:19.936Z,-2.40
2023-02-15T07:13:48.036Z,-2.30
2023-02-15T07:16:14.858Z,-2.20
2023-02-15T07:18:41.759Z,-2.10
2023-02-15T07:21:08.947Z,-2.10
2023-02-15T07:23:40.099Z,-1.90
2023-02-15T07:26:07.608Z,-1.90
2023-02-15T07:28:35.381Z,-1.80
2023-02-15T07:31:03.795Z,-1.90
2023-02-15T07:33:34.174Z,-2.10
2023-02-15T07:36:03.216Z,-2.10
2023-02-15T07:38:37.905Z,-2.10
2023-02-15T07:41:09.670Z,-1.90
2023-02-15T07:43:39.138Z,-2.10
2023-02-15T07:46:08.734Z,-2.10
2023-02-15T07:48:36.950Z,-2.10
2023-02-15T07:51:06.726Z,-2.00
2023-02-15T07:53:34.501Z,-2.10
2023-02-15T07:56:02.948Z,-2.10
2023-02-15T07:58:48.180Z,-2.10
2023-02-15T08:01:15.682Z,-2.10
2023-02-15T08:03:42.614Z,-2.00
2023-02-15T08:06:09.436Z,-1.90
2023-02-15T08:08:36.451Z,-1.80
2023-02-15T08:11:37.477Z,-1.70
2023-02-15T08:14:09.718Z,-1.80
2023-02-15T08:16:41.084Z,-1.90
2023-02-15T08:19:23.681Z,-2.00
2023-02-15T08:21:52.556Z,-1.90
2023-02-15T08:24:22.052Z,-1.90
2023-02-15T08:26:49.950Z,-1.90
2023-02-15T08:29:18.515Z,-1.80
2023-02-15T08:31:45.920Z,-1.90
2023-02-15T08:34:16.942Z,-1.70
2023-02-15T08:36:46.086Z,-1.60
2023-02-15T08:39:14.580Z,-1.60
2023-02-15T08:41:44.429Z,-1.50
2023-02-15T08:44:11.712Z,-1.40
2023-02-15T08:46:40.490Z,-1.30
2023-02-15T08:49:07.537Z,-1.10
2023-02-15T08:51:36.284Z,-1.00
2023-02-15T08:54:08.077Z,-1.00
2023-02-15T08:56:40.060Z,-1.10
2023-02-15T08:59:08.111Z,-0.90
2023-02-15T09:01:36.074Z,-0.80
2023-02-15T09:04:10.860Z,-0.70
2023-02-15T09:06:42.033Z,-0.60
2023-02-15T09:09:09.332Z,-0.40
2023-02-15T09:11:39.263Z,-0.20
2023-02-15T09:14:09.159Z,-0.30
2023-02-15T09:16:38.534Z,-0.80
2023-02-15T09:19:06.682Z,-0.70
2023-02-15T09:21:36.396Z,-0.80
2023-02-15T09:24:06.286Z,-0.50
2023-02-15T09:26:35.189Z,-0.40
2023-02-15T09:29:02.481Z,-0.30
2023-02-15T09:31:32.469Z,0.00
2023-02-15T09:34:03.676Z,0.20
2023-02-15T09:36:38.755Z,-0.20
2023-02-15T09:39:12.392Z,-0.70
2023-02-15T09:42:01.641Z,-0.50
2023-02-15T09:44:52.612Z,-0.20
2023-02-15T09:47:41.058Z,0.20
2023-02-15T09:50:14.268Z,0.60
2023-02-15T09:52:50.505Z,0.60
2023-02-15T09:55:30.186Z,0.60
2023-02-15T09:58:23.498Z,0.80
2023-02-15T10:01:06.232Z,1.10
2023-02-15T10:03:47.980Z,1.60
2023-02-15T10:06:16.718Z,1.80
2023-02-15T10:09:03.909Z,1.70
2023-02-15T10:11:51.034Z,1.80
2023-02-15T10:14:38.891Z,1.70
2023-02-15T10:18:00.705Z,1.60
2023-02-15T10:20:56.840Z,1.70
2023-02-15T10:23:32.255Z,2.10
2023-02-15T10:26:17.259Z,2.20
2023-02-15T10:28:49.412Z,2.00
2023-02-15T10:31:26.713Z,2.20
2023-02-15T10:34:24.885Z,2.50
2023-02-15T10:37:16.848Z,2.80
2023-02-15T10:39:59.969Z,3.20
2023-02-15T10:42:54.515Z,3.30
2023-02-15T10:45:21.221Z,3.50
2023-02-15T10:47:53.851Z,3.70
2023-02-15T10:50:34.453Z,3.70
2023-02-15T10:53:19.254Z,3.90
2023-02-15T10:56:22.994Z,4.10
2023-02-15T10:59:13.557Z,4.10
2023-02-15T11:02:05.104Z,4.40
2023-02-15T11:04:54.846Z,4.50
2023-02-15T11:07:33.086Z,4.70
2023-02-15T11:10:16.700Z,4.70
2023-02-15T11:12:46.586Z,4.80
2023-02-15T11:15:22.343Z,5.10
2023-02-15T11:18:05.075Z,5.20
2023-02-15T11:20:35.258Z,5.40
2023-02-15T11:23:03.542Z,5.40
2023-02-15T11:25:33.782Z,5.50
2023-02-15T11:28:05.217Z,5.60
2023-02-15T11:30:55.498Z,5.60
2023-02-15T11:33:30.468Z,5.70
2023-02-15T11:36:12.962Z,5.90
2023-02-15T11:38:44.253Z,5.90
2023-02-15T11:41:22.631Z,5.90
2023-02-15T11:44:01.964Z,6.20
2023-02-15T11:46:29.729Z,6.40
2023-02-15T11:48:56.959Z,6.70
2023-02-15T11:51:24.455Z,6.70
2023-02-15T11:53:52.699Z,6.70
2023-02-15T11:56:28.556Z,6.80
2023-02-15T11:59:11.700Z,6.90
2023-02-15T12:01:43.912Z,6.90
2023-02-15T12:04:23.486Z,7.10
2023-02-15T12:07:02.257Z,7.20
2023-02-15T12:09:50.257Z,7.50
2023-02-15T12:12:32.230Z,7.50
2023-02-15T12:15:01.057Z,7.80
2023-02-15T12:17:30.920Z,7.80
2023-02-15T12:20:14.761Z,7.90
2023-02-15T12:22:49.925Z,8.00
2023-02-15T12:25:38.216Z,8.10
2023-02-15T12:28:19.752Z,8.00
2023-02-15T12:30:47.408Z,8.10
2023-02-15T12:33:22.751Z,8.30
2023-02-15T12:36:12.065Z,8.40
2023-02-15T12:38:38.905Z,8.60
2023-02-15T12:41:28.106Z,9.00
2023-02-15T12:44:19.872Z,9.20
2023-02-15T12:47:02.980Z,9.40
2023-02-15T12:49:33.150Z,9.70
2023-02-15T12:52:03.263Z,9.90
2023-02-15T12:54:32.252Z,9.80
2023-02-15T12:56:59.808Z,9.70
2023-02-15T12:59:26.627Z,9.70
2023-02-15T13:01:56.651Z,9.70
2023-02-15T13:04:28.893Z,9.80
2023-02-15T13:07:03.599Z,9.70
2023-02-15T13:09:33.393Z,9.70
2023-02-15T13:12:17.595Z,9.90
2023-02-15T13:14:46.736Z,10.30
2023-02-15T13:17:16.659Z,10.40
2023-02-15T13:19:47.288Z,10.10
2023-02-15T13:22:28.603Z,10.60
2023-02-15T13:25:00.257Z,10.90
2023-02-15T13:27:39.390Z,11.30
2023-02-15T13:30:35.865Z,11.20
2023-02-15T13:33:13.407Z,11.10
2023-02-15T13:36:11.027Z,11.00
2023-02-15T13:38:45.698Z,11.10
2023-02-15T13:41:18.695Z,11.10
2023-02-15T13:44:04.596Z,11.30
2023-02-15T13:46:47.491Z,11.40
2023-02-15T13:50:02.053Z,11.30
2023-02-15T13:52:30.804Z,11.30
2023-02-15T13:55:15.908Z,11.30
2023-02-15T13:57:55.976Z,11.50
2023-02-15T14:00:46.397Z,11.50
2023-02-15T14:03:35.008Z,11.40
2023-02-15T14:06:28.848Z,11.20
2023-02-15T14:09:16.970Z,11.20
2023-02-15T14:12:03.241Z,11.00
2023-02-15T14:15:03.204Z,11.00
2023-02-15T14:17:52.177Z,10.80
2023-02-15T14:20:38.248Z,10.90
2023-02-15T14:23:18.934Z,10.70
2023-02-15T14:25:58.007Z,10.50
2023-02-15T14:28:47.433Z,9.80
2023-02-15T14:31:16.268Z,9.10
2023-02-15T14:33:55.874Z,8.80
2023-02-15T14:36:25.761Z,8.50
2023-02-15T14:39:39.432Z,8.50
2023-02-15T14:42:27.071Z,8.50
2023-02-15T14:45:14.993Z,8.30
2023-02-15T14:47:47.777Z,8.30
2023-02-15T14:50:34.775Z,8.30
2023-02-15T14:53:39.557Z,8.20
2023-02-15T14:56:14.610Z,8.30
2023-02-15T14:58:57.547Z,8.30
2023-02-15T15:01:33.696Z,8.40
2023-02-15T15:04:26.826Z,8.40
2023-02-15T15:07:49.591Z,8.40
2023-02-15T15:10:18.962Z,8.30
2023-02-15T15:12:47.006Z,8.40
2023-02-15T15:15:28.898Z,8.60
2023-02-15T15:18:07.412Z,8.30
2023-02-15T15:20:42.937Z,8.30
2023-02-15T15:23:16.048Z,8.20
2023-02-15T15:25:47.538Z,8.00
2023-02-15T15:28:35.864Z,7.90
2023-02-15T15:31:16.078Z,7.80
2023-02-15T15:34:18.786Z,7.50
2023-02-15T15:37:06.301Z,7.30
2023-02-15T15:39:48.147Z,7.10
2023-02-15T15:43:03.928Z,7.10
2023-02-15T15:45:52.643Z,7.00
2023-02-15T15:48:39.793Z,6.60
2023-02-15T15:51:20.351Z,6.60
2023-02-15T15:53:52.178Z,6.50
2023-02-15T15:56:22.477Z,6.40
2023-02-15T15:58:56.519Z,6.20
2023-02-15T16:01:40.067Z,6.00
2023-02-15T16:04:06.810Z,5.70
2023-02-15T16:06:39.465Z,5.40
2023-02-15T16:09:22.111Z,5.10
2023-02-15T16:12:02.436Z,4.90
2023-02-15T16:14:36.706Z,4.80
2023-02-15T16:17:06.961Z,4.50
2023-02-15T16:19:44.424Z,4.30
2023-02-15T16:22:21.547Z,4.10
2023-02-15T16:25:13.272Z,4.00
2023-02-15T16:27:42.932Z,3.80
2023-02-15T16:30:32.509Z,3.70
2023-02-15T16:33:11.829Z,3.60
2023-02-15T16:35:41.339Z,3.10
2023-02-15T16:38:12.225Z,2.80
2023-02-15T16:40:43.785Z,2.60
2023-02-15T16:43:19.307Z,2.60
2023-02-15T16:45:46.639Z,2.60
2023-02-15T16:48:19.190Z,2.60
2023-02-15T16:50:52.421Z,2.50
2023-02-15T16:53:26.555Z,2.60
2023-02-15T16:55:56.661Z,2.60
2023-02-15T16:58:29.688Z,2.60
2023-02-15T17:00:59.611Z,2.50
2023-02-15T17:03:27.394Z,2.40
2023-02-15T17:05:56.897Z,2.50
2023-02-15T17:08:29.428Z,2.50
2023-02-15T17:11:20.555Z,2.50
2023-02-15T17:14:05.815Z,2.50
2023-02-15T17:16:34.828Z,2.30
2023-02-15T17:19:03.147Z,2.30
2023-02-15T17:21:38.305Z,2.30
2023-02-15T17:24:05.463Z,2.30
2023-02-15T17:26:35.609Z,2.20
2023-02-15T17:29:20.937Z,2.20
2023-02-15T17:31:51.618Z,2.20
2023-02-15T17:34:44.315Z,2.10
2023-02-15T17:37:37.285Z,2.10
2023-02-15T17:40:20.496Z,2.10
2023-02-15T17:42:47.322Z,2.10
2023-02-15T17:45:15.492Z,2.10
2023-02-15T17:47:42.668Z,1.80
2023-02-15T17:50:24.341Z,1.50
2023-02-15T17:52:53.546Z,1.50
2023-02-15T17:55:41.133Z,1.30
2023-02-15T17:58:15.987Z,1.50
2023-02-15T18:01:10.141Z,1.50
2023-02-15T18:03:55.317Z,1.70
2023-02-15T18:06:40.552Z,1.80
2023-02-15T18:09:32.934Z,1.70
2023-02-15T18:11:59.877Z,1.70
2023-02-15T18:14:27.514Z,1.70
2023-02-15T18:16:54.954Z,1.70
2023-02-15T18:19:29.527Z,1.60
2023-02-15T18:21:59.518Z,1.70
2023-02-15T18:24:27.540Z,1.70
2023-02-15T18:26:56.549Z,1.60
2023-02-15T18:29:23.275Z,1.60
2023-02-15T18:31:54.010Z,1.50
2023-02-15T18:34:39.578Z,1.40
2023-02-15T18:37:12.807Z,1.30
2023-02-15T18:39:40.756Z,1.30
2023-02-15T18:42:24.368Z,1.30
2023-02-15T18:44:55.683Z,1.30
2023-02-15T18:47:22.717Z,1.30
2023-02-15T18:49:49.388Z,1.10
2023-02-15T18:52:18.521Z,0.80
2023-02-15T18:54:46.573Z,0.80
2023-02-15T18:57:14.830Z,0.90
2023-02-15T18:59:41.878Z,1.00
2023-02-15T19:02:17.190Z,1.00
2023-02-15T19:04:45.346Z,1.10
2023-02-15T19:07:27.514Z,1.10
2023-02-15T19:09:57.105Z,1.10
2023-02-15T19:12:24.014Z,1.20
2023-02-15T19:14:53.739Z,1.20
2023-02-15T19:17:21.699Z,0.90
2023-02-15T19:19:48.893Z,0.90
2023-02-15T19:22:36.556Z,0.90
2023-02-15T19:25:05.562Z,0.70
2023-02-15T19:27:37.893Z,0.50
2023-02-15T19:30:19.249Z,0.50
2023-02-15T19:32:46.690Z,0.40
2023-02-15T19:35:35.612Z,0.50
2023-02-15T19:38:07.618Z,0.60
2023-02-15T19:40:35.711Z,0.70
2023-02-15T19:43:03.380Z,0.70
2023-02-15T19:45:32.255Z,0.80
2023-02-15T19:48:01.514Z,0.80
2023-02-15T19:50:33.256Z,0.70
2023-02-15T19:53:01.561Z,0.70
2023-02-15T19:55:34.230Z,0.70
2023-02-15T19:58:02.322Z,0.70
2023-02-15T20:00:32.129Z,0.70
2023-02-15T20:02:59.811Z,0.60
2023-02-15T20:05:31.890Z,0.70
2023-02-15T20:07:58.955Z,0.50
2023-02-15T20:10:30.927Z,0.40
2023-02-15T20:12:58.305Z,0.40
2023-02-15T20:15:29.450Z,0.60
2023-02-15T20:17:57.604Z,0.50
2023-02-15T20:20:34.779Z,0.40
2023-02-15T20:23:01.977Z,0.50
2023-02-15T20:25:30.367Z,0.50
2023-02-15T20:27:59.266Z,0.50
2023-02-15T20:30:28.945Z,0.50
2023-02-15T20:32:55.650Z,0.50
2023-02-15T20:35:24.985Z,0.50
2023-02-15T20:37:54.101Z,0.50
2023-02-15T20:40:28.564Z,0.30
2023-02-15T20:42:55.637Z,0.00
2023-02-15T20:45:30.995Z,-0.40
2023-02-15T20:47:58.589Z,-0.40
2023-02-15T20:50:36.058Z,-0.40
2023-02-15T20:53:02.856Z,-0.50
2023-02-15T20:55:31.483Z,-0.40
2023-02-15T20:57:59.332Z,-0.30
2023-02-15T21:00:28.843Z,-0.20
2023-02-15T21:03:00.357Z,-0.10
2023-02-15T21:05:30.761Z,-0.40
2023-02-15T21:07:57.842Z,-0.50
2023-02-15T21:10:27.551Z,-0.60
2023-02-15T21:12:54.543Z,-0.60
2023-02-15T21:15:29.396Z,-0.60
2023-02-15T21:17:58.197Z,-0.90
2023-02-15T21:20:25.797Z,-0.90
2023-02-15T21:22:52.945Z,-0.90
2023-02-15T21:25:44.643Z,-0.80
2023-02-15T21:28:20.210Z,-0.80
2023-02-15T21:30:48.743Z,-0.90
2023-02-15T21:33:16.104Z,-1.00
2023-02-15T21:35:44.633Z,-0.90
2023-02-15T21:38:15.652Z,-0.80
2023-02-15T21:40:43.072Z,-0.80
2023-02-15T21:43:38.595Z,-0.90
2023-02-15T21:46:36.306Z,-1.00
2023-02-15T21:49:04.057Z,-0.80
2023-02-15T21:51:49.844Z,-0.80
2023-02-15T21:54:20.775Z,-1.00
2023-02-15T21:56:50.812Z,-1.10
2023-02-15T21:59:18.630Z,-1.00
2023-02-15T22:01:48.748Z,-1.00
2023-02-15T22:04:27.870Z,-0.90
2023-02-15T22:06:55.062Z,-1.00
2023-02-15T22:09:25.209Z,-1.00
2023-02-15T22:11:52.268Z,-1.20
2023-02-15T22:14:51.252Z,-1.30
2023-02-15T22:17:22.118Z,-1.30
2023-02-15T22:19:49.705Z,-1.40
2023-02-15T22:22:17.092Z,-1.50
2023-02-15T22:24:44.855Z,-1.60
2023-02-15T22:27:26.143Z,-1.60
2023-02-15T22:29:54.358Z,-1.70
2023-02-15T22:32:23.971Z,-1.80
2023-02-15T22:34:51.883Z,-1.80
2023-02-15T22:37:18.668Z,-1.80
2023-02-15T22:39:45.467Z,-1.90
2023-02-15T22:42:25.205Z,-1.80
2023-02-15T22:44:54.668Z,-1.70
2023-02-15T22:47:24.137Z,-1.70
2023-02-15T22:49:51.061Z,-1.60
2023-02-15T22:52:18.838Z,-1.60
2023-02-15T22:54:45.965Z,-1.60
2023-02-15T22:57:26.569Z,-1.70
2023-02-15T22:59:53.255Z,-1.70
2023-02-15T23:02:19.934Z,-1.80
2023-02-15T23:04:47.631Z,-1.80
2023-02-15T23:07:16.899Z,-1.70
2023-02-15T23:09:44.016Z,-1.60
2023-02-15T23:12:49.598Z,-1.50
2023-02-15T23:15:16.344Z,-1.50
2023-02-15T23:17:43.028Z,-1.40
2023-02-15T23:20:17.373Z,-1.30
2023-02-15T23:22:44.422Z,-1.10
2023-02-15T23:25:12.018Z,-1.30
2023-02-15T23:27:56.961Z,-1.60
2023-02-15T23:30:23.995Z,-1.70
2023-02-15T23:32:53.281Z,-1.70
2023-02-15T23:35:20.388Z,-1.70
2023-02-15T23:37:48.184Z,-1.60
2023-02-15T23:40:34.736Z,-1.40
2023-02-15T23:43:02.061Z,-1.30
2023-02-15T23:45:29.426Z,-1.30
2023-02-15T23:48:15.246Z,-1.30
2023-02-15T23:50:41.929Z,-1.30
2023-02-15T23:53:09.984Z,-1.40
2023-02-15T23:55:40.744Z,-1.30
2023-02-15T23:58:14.676Z,-1.40
